Milan, IL

8:56 PM CDT on July 23, 2016 (GMT -0500)
APRSWXNET | | Change Station
Active Advisory: Severe Thunderstorm Watch

Elev 652 ft 41.42 °N, 90.55 °W | Updated 23 minutes ago

Overcast
Overcast
82 °F
Feels Like 90 °F
N
1
Wind Variable Wind from West
Gusts 0.0 mph

Today
High -- | Low -- °F
--% Chance of Precip.
Yesterday
High -- | Low -- °F
Precip. -- in
Pressure 29.87 in
Visibility 10.0 miles
Clouds Mostly Cloudy 1900 ft
Overcast 2600 ft
Heat Index 90 °F
Dew Point 76 °F
Humidity 83%
Rainfall in
Snow Depth Not available.
5:49 AM 8:27 PM
Waning Gibbous, 81% visible
METAR KMLI 240152Z 05012G19KT 10SM TS BKN019 OVC026 27/22 A2989 RMK AO2 LTG DSNT N-E TSB51 SLP114 T02670217
Pressure 29.87 in
Visibility 10.0 miles
Clouds Mostly Cloudy 1900 ft
Overcast 2600 ft
Heat Index 90 °F
Dew Point 76 °F
Humidity 83%
Rainfall in
Snow Depth Not available.
5:49 AM 8:27 PM
Waning Gibbous, 81% visible
METAR KMLI 240152Z 05012G19KT 10SM TS BKN019 OVC026 27/22 A2989 RMK AO2 LTG DSNT N-E TSB51 SLP114 T02670217

10-Day Weather Forecast

Almanac

Astronomy

Jul. 23, 2016 Rise Set
Actual Time
Civil Twilight
Nautical Twilight
Astronomical Twilight
Moon
Length of Visible Light
Length of Day
Tomorrow will be .
, % of the Moon is Illuminated

Today's Extremes

State Highs State Lows

Community

WunderPhotos

Upload Photos

1,926,996 photos uploaded!

WunderBlog® & News

Nearby

Air Quality

  Air Quality AQ Index Pollutant
Not available.

Snow Depth

Station Depth Elevation

Earthquake Activity

City Distance Mag. Time & Date
Minimum magnitude displayed is 2.5.

Coastal Water Temperatures

Place Temperature

Stations

Nearby Weather Stations

Station Location Temp. Windchill Dew Point Humidity Wind Precip. Elev Updated Type
                   

Watches & Warnings

Severe Thunderstorm Watch
Issued: 8:50 PM CDT Jul. 23, 2016 – National Weather Service


Severe Thunderstorm Watch 412 remains valid until 10 PM CDT this
evening for the following areas

In Illinois this watch includes 5 counties

In north central Illinois

Bureau Putnam

In northwest Illinois

Henry IL Rock Island Whiteside

This includes the cities of... Geneseo... Hennepin... Moline...
Princeton... Rock Island and Sterling.